sensor_id;sensor_type;location;lat;lon;timestamp;P1;durP1;ratioP1;P2;durP2;ratioP2
12135;SDS011;6131;56.420;15.548;2024-02-21T00:00:57;17.47;;;4.93;;
12135;SDS011;6131;56.420;15.548;2024-02-21T00:03:23;16.03;;;4.63;;
12135;SDS011;6131;56.420;15.548;2024-02-21T00:05:49;20.10;;;4.60;;
12135;SDS011;6131;56.420;15.548;2024-02-21T00:08:15;23.17;;;4.63;;
12135;SDS011;6131;56.420;15.548;2024-02-21T00:10:41;21.87;;;5.23;;
12135;SDS011;6131;56.420;15.548;2024-02-21T00:13:07;27.37;;;5.03;;
12135;SDS011;6131;56.420;15.548;2024-02-21T00:15:33;22.33;;;5.87;;
12135;SDS011;6131;56.420;15.548;2024-02-21T00:17:59;17.80;;;5.53;;
12135;SDS011;6131;56.420;15.548;2024-02-21T00:20:25;22.53;;;4.93;;
12135;SDS011;6131;56.420;15.548;2024-02-21T00:22:51;20.57;;;4.47;;
12135;SDS011;6131;56.420;15.548;2024-02-21T00:25:17;19.43;;;4.73;;
12135;SDS011;6131;56.420;15.548;2024-02-21T00:27:43;21.13;;;4.87;;
12135;SDS011;6131;56.420;15.548;2024-02-21T00:30:09;17.33;;;4.63;;
12135;SDS011;6131;56.420;15.548;2024-02-21T00:32:35;12.13;;;4.00;;
12135;SDS011;6131;56.420;15.548;2024-02-21T00:35:01;19.33;;;4.40;;
12135;SDS011;6131;56.420;15.548;2024-02-21T00:37:27;15.27;;;4.37;;
12135;SDS011;6131;56.420;15.548;2024-02-21T00:39:54;17.27;;;4.07;;
12135;SDS011;6131;56.420;15.548;2024-02-21T00:42:20;22.67;;;4.70;;
12135;SDS011;6131;56.420;15.548;2024-02-21T00:44:46;17.83;;;4.83;;
12135;SDS011;6131;56.420;15.548;2024-02-21T00:47:12;18.43;;;4.37;;
12135;SDS011;6131;56.420;15.548;2024-02-21T00:49:38;21.33;;;4.80;;
12135;SDS011;6131;56.420;15.548;2024-02-21T00:52:04;18.03;;;4.80;;
12135;SDS011;6131;56.420;15.548;2024-02-21T00:54:30;20.57;;;4.57;;
12135;SDS011;6131;56.420;15.548;2024-02-21T00:56:56;15.47;;;4.57;;
12135;SDS011;6131;56.420;15.548;2024-02-21T00:59:22;17.70;;;4.90;;
12135;SDS011;6131;56.420;15.548;2024-02-21T01:01:48;19.07;;;4.67;;
12135;SDS011;6131;56.420;15.548;2024-02-21T01:04:14;21.37;;;5.20;;
12135;SDS011;6131;56.420;15.548;2024-02-21T01:06:40;17.53;;;5.30;;
12135;SDS011;6131;56.420;15.548;2024-02-21T01:09:09;21.23;;;4.40;;
12135;SDS011;6131;56.420;15.548;2024-02-21T01:11:34;19.73;;;5.13;;
12135;SDS011;6131;56.420;15.548;2024-02-21T01:14:01;16.60;;;5.07;;
12135;SDS011;6131;56.420;15.548;2024-02-21T01:16:27;23.10;;;5.03;;
12135;SDS011;6131;56.420;15.548;2024-02-21T01:18:53;19.03;;;4.80;;
12135;SDS011;6131;56.420;15.548;2024-02-21T01:21:19;21.07;;;4.63;;
12135;SDS011;6131;56.420;15.548;2024-02-21T01:23:45;13.37;;;4.90;;
12135;SDS011;6131;56.420;15.548;2024-02-21T01:26:11;14.10;;;4.00;;
12135;SDS011;6131;56.420;15.548;2024-02-21T01:28:39;20.33;;;4.33;;
12135;SDS011;6131;56.420;15.548;2024-02-21T01:31:05;21.13;;;5.00;;
12135;SDS011;6131;56.420;15.548;2024-02-21T01:33:32;20.67;;;4.77;;
12135;SDS011;6131;56.420;15.548;2024-02-21T01:36:03;22.23;;;5.20;;
12135;SDS011;6131;56.420;15.548;2024-02-21T01:38:29;16.63;;;4.83;;
12135;SDS011;6131;56.420;15.548;2024-02-21T01:40:56;21.73;;;5.10;;
12135;SDS011;6131;56.420;15.548;2024-02-21T01:43:22;22.50;;;5.03;;
12135;SDS011;6131;56.420;15.548;2024-02-21T01:45:50;24.80;;;5.73;;
12135;SDS011;6131;56.420;15.548;2024-02-21T01:48:17;27.90;;;6.03;;
12135;SDS011;6131;56.420;15.548;2024-02-21T01:50:46;24.87;;;5.60;;
12135;SDS011;6131;56.420;15.548;2024-02-21T01:53:13;20.33;;;6.10;;
12135;SDS011;6131;56.420;15.548;2024-02-21T01:55:44;34.80;;;7.10;;
12135;SDS011;6131;56.420;15.548;2024-02-21T01:58:11;22.53;;;6.73;;
12135;SDS011;6131;56.420;15.548;2024-02-21T02:00:37;26.47;;;5.97;;
12135;SDS011;6131;56.420;15.548;2024-02-21T02:03:04;29.80;;;6.90;;
12135;SDS011;6131;56.420;15.548;2024-02-21T02:05:32;27.93;;;7.00;;
12135;SDS011;6131;56.420;15.548;2024-02-21T02:07:59;31.10;;;7.13;;
12135;SDS011;6131;56.420;15.548;2024-02-21T02:10:25;24.43;;;6.77;;
12135;SDS011;6131;56.420;15.548;2024-02-21T02:12:51;29.97;;;6.87;;
12135;SDS011;6131;56.420;15.548;2024-02-21T02:15:17;27.90;;;7.07;;
12135;SDS011;6131;56.420;15.548;2024-02-21T02:17:43;33.73;;;7.07;;
12135;SDS011;6131;56.420;15.548;2024-02-21T02:20:10;31.33;;;6.87;;
12135;SDS011;6131;56.420;15.548;2024-02-21T02:22:36;26.33;;;6.53;;
12135;SDS011;6131;56.420;15.548;2024-02-21T02:25:03;33.43;;;7.30;;
12135;SDS011;6131;56.420;15.548;2024-02-21T02:27:29;31.50;;;7.70;;
12135;SDS011;6131;56.420;15.548;2024-02-21T02:29:55;29.37;;;7.07;;
12135;SDS011;6131;56.420;15.548;2024-02-21T02:32:21;33.60;;;6.80;;
12135;SDS011;6131;56.420;15.548;2024-02-21T02:34:47;32.07;;;7.30;;
12135;SDS011;6131;56.420;15.548;2024-02-21T02:37:13;28.20;;;6.53;;
12135;SDS011;6131;56.420;15.548;2024-02-21T02:39:39;34.00;;;7.57;;
12135;SDS011;6131;56.420;15.548;2024-02-21T02:42:05;36.77;;;7.23;;
12135;SDS011;6131;56.420;15.548;2024-02-21T02:44:31;30.73;;;6.57;;
12135;SDS011;6131;56.420;15.548;2024-02-21T02:46:57;34.07;;;6.73;;
12135;SDS011;6131;56.420;15.548;2024-02-21T02:49:23;35.40;;;6.73;;
12135;SDS011;6131;56.420;15.548;2024-02-21T02:51:49;35.90;;;6.90;;
12135;SDS011;6131;56.420;15.548;2024-02-21T02:54:15;33.27;;;6.43;;
12135;SDS011;6131;56.420;15.548;2024-02-21T02:56:41;33.17;;;6.43;;
12135;SDS011;6131;56.420;15.548;2024-02-21T02:59:07;36.83;;;6.60;;
12135;SDS011;6131;56.420;15.548;2024-02-21T03:01:33;33.33;;;6.53;;
12135;SDS011;6131;56.420;15.548;2024-02-21T03:04:00;26.43;;;6.73;;
12135;SDS011;6131;56.420;15.548;2024-02-21T03:06:26;32.77;;;6.43;;
12135;SDS011;6131;56.420;15.548;2024-02-21T03:08:52;30.87;;;6.67;;
12135;SDS011;6131;56.420;15.548;2024-02-21T03:11:19;42.30;;;8.20;;
12135;SDS011;6131;56.420;15.548;2024-02-21T03:13:46;32.50;;;7.47;;
12135;SDS011;6131;56.420;15.548;2024-02-21T03:16:12;33.70;;;7.77;;
12135;SDS011;6131;56.420;15.548;2024-02-21T03:18:38;37.93;;;8.10;;
12135;SDS011;6131;56.420;15.548;2024-02-21T03:21:04;29.37;;;8.37;;
12135;SDS011;6131;56.420;15.548;2024-02-21T03:23:30;32.53;;;8.10;;
12135;SDS011;6131;56.420;15.548;2024-02-21T03:25:56;39.63;;;9.23;;
12135;SDS011;6131;56.420;15.548;2024-02-21T03:28:22;37.83;;;9.17;;
12135;SDS011;6131;56.420;15.548;2024-02-21T03:30:48;30.20;;;9.53;;
12135;SDS011;6131;56.420;15.548;2024-02-21T03:33:14;47.57;;;10.37;;
12135;SDS011;6131;56.420;15.548;2024-02-21T03:35:40;37.47;;;10.23;;
12135;SDS011;6131;56.420;15.548;2024-02-21T03:38:06;34.23;;;9.90;;
12135;SDS011;6131;56.420;15.548;2024-02-21T03:40:32;34.70;;;10.57;;
12135;SDS011;6131;56.420;15.548;2024-02-21T03:42:58;31.60;;;10.53;;
12135;SDS011;6131;56.420;15.548;2024-02-21T03:45:24;32.73;;;9.40;;
12135;SDS011;6131;56.420;15.548;2024-02-21T03:47:50;25.13;;;9.40;;
12135;SDS011;6131;56.420;15.548;2024-02-21T03:50:16;40.00;;;10.87;;
12135;SDS011;6131;56.420;15.548;2024-02-21T03:52:42;30.37;;;9.97;;
12135;SDS011;6131;56.420;15.548;2024-02-21T03:55:08;30.00;;;10.77;;
12135;SDS011;6131;56.420;15.548;2024-02-21T03:57:34;35.97;;;11.37;;
12135;SDS011;6131;56.420;15.548;2024-02-21T04:00:00;36.63;;;9.03;;
12135;SDS011;6131;56.420;15.548;2024-02-21T04:02:26;33.73;;;11.27;;
12135;SDS011;6131;56.420;15.548;2024-02-21T04:04:52;23.20;;;10.17;;
12135;SDS011;6131;56.420;15.548;2024-02-21T04:07:18;30.80;;;10.33;;
12135;SDS011;6131;56.420;15.548;2024-02-21T04:09:44;29.33;;;10.07;;
12135;SDS011;6131;56.420;15.548;2024-02-21T04:12:10;35.73;;;11.27;;
12135;SDS011;6131;56.420;15.548;2024-02-21T04:14:36;23.97;;;9.70;;
12135;SDS011;6131;56.420;15.548;2024-02-21T04:17:02;25.40;;;8.57;;
12135;SDS011;6131;56.420;15.548;2024-02-21T04:19:28;34.10;;;10.37;;
12135;SDS011;6131;56.420;15.548;2024-02-21T04:21:56;36.70;;;11.40;;
12135;SDS011;6131;56.420;15.548;2024-02-21T04:24:21;25.53;;;10.93;;
12135;SDS011;6131;56.420;15.548;2024-02-21T04:26:47;29.67;;;10.60;;
12135;SDS011;6131;56.420;15.548;2024-02-21T04:29:14;22.17;;;10.13;;
12135;SDS011;6131;56.420;15.548;2024-02-21T04:31:40;28.23;;;10.93;;
12135;SDS011;6131;56.420;15.548;2024-02-21T04:34:06;29.00;;;11.60;;
12135;SDS011;6131;56.420;15.548;2024-02-21T04:36:32;22.07;;;9.73;;
12135;SDS011;6131;56.420;15.548;2024-02-21T04:38:58;20.40;;;8.33;;
12135;SDS011;6131;56.420;15.548;2024-02-21T04:41:24;25.27;;;10.17;;
12135;SDS011;6131;56.420;15.548;2024-02-21T04:43:50;18.90;;;9.57;;
12135;SDS011;6131;56.420;15.548;2024-02-21T04:46:16;22.87;;;10.87;;
12135;SDS011;6131;56.420;15.548;2024-02-21T04:48:42;27.60;;;11.17;;
12135;SDS011;6131;56.420;15.548;2024-02-21T04:51:08;23.27;;;10.17;;
12135;SDS011;6131;56.420;15.548;2024-02-21T04:53:34;21.00;;;10.63;;
12135;SDS011;6131;56.420;15.548;2024-02-21T04:56:00;26.90;;;10.47;;
12135;SDS011;6131;56.420;15.548;2024-02-21T04:58:26;19.33;;;9.37;;
12135;SDS011;6131;56.420;15.548;2024-02-21T05:00:52;17.23;;;10.20;;
12135;SDS011;6131;56.420;15.548;2024-02-21T05:03:19;18.13;;;10.63;;
12135;SDS011;6131;56.420;15.548;2024-02-21T05:05:45;21.40;;;11.40;;
12135;SDS011;6131;56.420;15.548;2024-02-21T05:08:11;23.60;;;11.00;;
12135;SDS011;6131;56.420;15.548;2024-02-21T05:10:37;20.70;;;10.80;;
12135;SDS011;6131;56.420;15.548;2024-02-21T05:13:04;23.20;;;9.63;;
12135;SDS011;6131;56.420;15.548;2024-02-21T05:15:30;23.07;;;11.10;;
12135;SDS011;6131;56.420;15.548;2024-02-21T05:17:56;19.47;;;10.33;;
12135;SDS011;6131;56.420;15.548;2024-02-21T05:20:22;19.80;;;11.23;;
12135;SDS011;6131;56.420;15.548;2024-02-21T05:22:48;23.53;;;11.67;;
12135;SDS011;6131;56.420;15.548;2024-02-21T05:25:14;20.60;;;11.23;;
12135;SDS011;6131;56.420;15.548;2024-02-21T05:27:40;23.30;;;12.63;;
12135;SDS011;6131;56.420;15.548;2024-02-21T05:30:06;27.73;;;11.77;;
12135;SDS011;6131;56.420;15.548;2024-02-21T05:32:32;27.40;;;11.43;;
12135;SDS011;6131;56.420;15.548;2024-02-21T05:34:58;26.30;;;12.17;;
12135;SDS011;6131;56.420;15.548;2024-02-21T05:37:24;24.90;;;13.10;;
12135;SDS011;6131;56.420;15.548;2024-02-21T05:39:50;19.80;;;12.20;;
12135;SDS011;6131;56.420;15.548;2024-02-21T05:42:16;20.10;;;12.37;;
12135;SDS011;6131;56.420;15.548;2024-02-21T05:44:42;24.17;;;13.63;;
12135;SDS011;6131;56.420;15.548;2024-02-21T05:47:08;23.17;;;12.27;;
12135;SDS011;6131;56.420;15.548;2024-02-21T05:49:35;24.77;;;13.83;;
12135;SDS011;6131;56.420;15.548;2024-02-21T05:52:01;27.07;;;11.93;;
12135;SDS011;6131;56.420;15.548;2024-02-21T05:54:27;26.60;;;13.73;;
12135;SDS011;6131;56.420;15.548;2024-02-21T05:56:53;32.03;;;14.47;;
12135;SDS011;6131;56.420;15.548;2024-02-21T05:59:19;22.37;;;12.07;;
12135;SDS011;6131;56.420;15.548;2024-02-21T06:01:45;23.20;;;13.10;;
12135;SDS011;6131;56.420;15.548;2024-02-21T06:04:21;26.87;;;12.13;;
12135;SDS011;6131;56.420;15.548;2024-02-21T06:06:47;17.07;;;10.30;;
12135;SDS011;6131;56.420;15.548;2024-02-21T06:09:13;17.47;;;9.63;;
12135;SDS011;6131;56.420;15.548;2024-02-21T06:11:39;15.23;;;9.60;;
12135;SDS011;6131;56.420;15.548;2024-02-21T06:14:05;16.67;;;9.50;;
12135;SDS011;6131;56.420;15.548;2024-02-21T06:16:31;12.23;;;7.07;;
12135;SDS011;6131;56.420;15.548;2024-02-21T06:18:57;6.93;;;5.53;;
12135;SDS011;6131;56.420;15.548;2024-02-21T06:21:23;8.87;;;6.60;;
12135;SDS011;6131;56.420;15.548;2024-02-21T06:23:49;8.47;;;5.77;;
12135;SDS011;6131;56.420;15.548;2024-02-21T06:26:14;7.53;;;5.17;;
12135;SDS011;6131;56.420;15.548;2024-02-21T06:28:40;7.23;;;5.13;;
12135;SDS011;6131;56.420;15.548;2024-02-21T06:31:07;8.50;;;4.40;;
12135;SDS011;6131;56.420;15.548;2024-02-21T06:33:33;6.83;;;4.63;;
12135;SDS011;6131;56.420;15.548;2024-02-21T06:35:59;5.97;;;4.53;;
12135;SDS011;6131;56.420;15.548;2024-02-21T06:38:25;7.70;;;3.93;;
12135;SDS011;6131;56.420;15.548;2024-02-21T06:40:51;6.13;;;3.60;;
12135;SDS011;6131;56.420;15.548;2024-02-21T06:43:19;5.00;;;4.00;;
12135;SDS011;6131;56.420;15.548;2024-02-21T06:45:45;4.63;;;3.43;;
12135;SDS011;6131;56.420;15.548;2024-02-21T06:48:19;3.97;;;3.30;;
12135;SDS011;6131;56.420;15.548;2024-02-21T06:50:45;4.10;;;3.10;;
12135;SDS011;6131;56.420;15.548;2024-02-21T06:53:11;5.73;;;3.60;;
12135;SDS011;6131;56.420;15.548;2024-02-21T06:55:37;5.80;;;3.07;;
12135;SDS011;6131;56.420;15.548;2024-02-21T06:58:03;4.40;;;3.17;;
12135;SDS011;6131;56.420;15.548;2024-02-21T07:00:29;4.63;;;3.07;;
12135;SDS011;6131;56.420;15.548;2024-02-21T07:02:55;4.57;;;3.00;;
12135;SDS011;6131;56.420;15.548;2024-02-21T07:05:21;4.40;;;2.90;;
12135;SDS011;6131;56.420;15.548;2024-02-21T07:07:47;3.50;;;2.53;;
12135;SDS011;6131;56.420;15.548;2024-02-21T07:10:13;4.23;;;2.70;;
12135;SDS011;6131;56.420;15.548;2024-02-21T07:12:39;3.30;;;2.53;;
12135;SDS011;6131;56.420;15.548;2024-02-21T07:15:08;4.23;;;2.60;;
12135;SDS011;6131;56.420;15.548;2024-02-21T07:17:34;3.27;;;2.90;;
12135;SDS011;6131;56.420;15.548;2024-02-21T07:20:00;4.30;;;2.50;;
12135;SDS011;6131;56.420;15.548;2024-02-21T07:22:26;3.47;;;2.70;;
12135;SDS011;6131;56.420;15.548;2024-02-21T07:24:52;6.03;;;3.07;;
12135;SDS011;6131;56.420;15.548;2024-02-21T07:27:18;5.17;;;3.53;;
12135;SDS011;6131;56.420;15.548;2024-02-21T07:29:44;5.30;;;2.80;;
12135;SDS011;6131;56.420;15.548;2024-02-21T07:32:12;4.80;;;3.40;;
12135;SDS011;6131;56.420;15.548;2024-02-21T07:34:38;6.23;;;3.63;;
12135;SDS011;6131;56.420;15.548;2024-02-21T07:37:04;5.87;;;4.10;;
12135;SDS011;6131;56.420;15.548;2024-02-21T07:39:30;9.13;;;4.63;;
12135;SDS011;6131;56.420;15.548;2024-02-21T07:41:56;7.83;;;5.20;;
12135;SDS011;6131;56.420;15.548;2024-02-21T07:44:22;8.07;;;4.70;;
12135;SDS011;6131;56.420;15.548;2024-02-21T07:46:48;7.83;;;5.03;;
12135;SDS011;6131;56.420;15.548;2024-02-21T07:49:14;11.67;;;5.23;;
12135;SDS011;6131;56.420;15.548;2024-02-21T07:51:40;8.40;;;5.20;;
12135;SDS011;6131;56.420;15.548;2024-02-21T07:54:07;8.50;;;5.70;;
12135;SDS011;6131;56.420;15.548;2024-02-21T07:56:33;10.27;;;5.60;;
12135;SDS011;6131;56.420;15.548;2024-02-21T07:58:59;8.37;;;5.63;;
12135;SDS011;6131;56.420;15.548;2024-02-21T08:01:25;8.27;;;6.07;;
12135;SDS011;6131;56.420;15.548;2024-02-21T08:03:51;10.17;;;6.00;;
12135;SDS011;6131;56.420;15.548;2024-02-21T08:06:17;7.83;;;5.70;;
12135;SDS011;6131;56.420;15.548;2024-02-21T08:08:43;8.30;;;5.83;;
12135;SDS011;6131;56.420;15.548;2024-02-21T08:11:09;8.17;;;5.73;;
12135;SDS011;6131;56.420;15.548;2024-02-21T08:13:35;9.30;;;6.50;;
12135;SDS011;6131;56.420;15.548;2024-02-21T08:16:00;9.77;;;5.83;;
12135;SDS011;6131;56.420;15.548;2024-02-21T08:18:28;8.07;;;6.03;;
12135;SDS011;6131;56.420;15.548;2024-02-21T08:20:54;9.97;;;6.63;;
12135;SDS011;6131;56.420;15.548;2024-02-21T08:23:22;10.07;;;7.03;;
12135;SDS011;6131;56.420;15.548;2024-02-21T08:25:49;11.53;;;6.77;;
12135;SDS011;6131;56.420;15.548;2024-02-21T08:28:15;8.67;;;6.80;;
12135;SDS011;6131;56.420;15.548;2024-02-21T08:30:42;10.27;;;6.90;;
12135;SDS011;6131;56.420;15.548;2024-02-21T08:33:13;11.73;;;6.93;;
12135;SDS011;6131;56.420;15.548;2024-02-21T08:35:39;8.60;;;6.93;;
12135;SDS011;6131;56.420;15.548;2024-02-21T08:38:05;9.27;;;6.87;;
12135;SDS011;6131;56.420;15.548;2024-02-21T08:40:31;9.23;;;6.20;;
12135;SDS011;6131;56.420;15.548;2024-02-21T08:43:00;8.77;;;6.07;;
12135;SDS011;6131;56.420;15.548;2024-02-21T08:45:26;9.63;;;6.23;;
12135;SDS011;6131;56.420;15.548;2024-02-21T08:47:52;8.17;;;6.33;;
12135;SDS011;6131;56.420;15.548;2024-02-21T08:50:18;7.47;;;5.70;;
12135;SDS011;6131;56.420;15.548;2024-02-21T08:52:44;7.63;;;6.00;;
12135;SDS011;6131;56.420;15.548;2024-02-21T08:55:10;7.20;;;5.73;;
12135;SDS011;6131;56.420;15.548;2024-02-21T08:57:35;8.97;;;5.73;;
12135;SDS011;6131;56.420;15.548;2024-02-21T09:00:05;7.03;;;5.80;;
12135;SDS011;6131;56.420;15.548;2024-02-21T09:02:41;5.53;;;4.77;;
12135;SDS011;6131;56.420;15.548;2024-02-21T09:05:10;7.60;;;5.23;;
12135;SDS011;6131;56.420;15.548;2024-02-21T09:07:36;8.50;;;5.23;;
12135;SDS011;6131;56.420;15.548;2024-02-21T09:10:02;6.60;;;4.33;;
12135;SDS011;6131;56.420;15.548;2024-02-21T09:12:28;5.70;;;4.30;;
12135;SDS011;6131;56.420;15.548;2024-02-21T09:14:54;6.77;;;4.63;;
12135;SDS011;6131;56.420;15.548;2024-02-21T09:17:20;5.10;;;4.30;;
12135;SDS011;6131;56.420;15.548;2024-02-21T09:19:47;9.10;;;4.43;;
12135;SDS011;6131;56.420;15.548;2024-02-21T09:22:13;7.23;;;4.43;;
12135;SDS011;6131;56.420;15.548;2024-02-21T09:24:39;5.27;;;3.70;;
12135;SDS011;6131;56.420;15.548;2024-02-21T09:27:05;5.60;;;3.30;;
12135;SDS011;6131;56.420;15.548;2024-02-21T09:29:31;7.67;;;3.77;;
12135;SDS011;6131;56.420;15.548;2024-02-21T09:32:01;4.20;;;3.20;;
12135;SDS011;6131;56.420;15.548;2024-02-21T09:34:27;4.10;;;3.00;;
12135;SDS011;6131;56.420;15.548;2024-02-21T09:36:53;5.63;;;3.00;;
12135;SDS011;6131;56.420;15.548;2024-02-21T09:39:19;4.40;;;2.67;;
12135;SDS011;6131;56.420;15.548;2024-02-21T09:41:47;3.10;;;1.50;;
12135;SDS011;6131;56.420;15.548;2024-02-21T09:44:13;6.73;;;2.00;;
12135;SDS011;6131;56.420;15.548;2024-02-21T09:46:43;5.03;;;1.70;;
12135;SDS011;6131;56.420;15.548;2024-02-21T09:51:41;2.50;;;1.00;;
12135;SDS011;6131;56.420;15.548;2024-02-21T09:54:07;3.60;;;1.10;;
12135;SDS011;6131;56.420;15.548;2024-02-21T09:56:33;1.23;;;0.70;;
12135;SDS011;6131;56.420;15.548;2024-02-21T09:58:59;1.03;;;0.50;;
12135;SDS011;6131;56.420;15.548;2024-02-21T10:01:30;1.53;;;0.70;;
12135;SDS011;6131;56.420;15.548;2024-02-21T10:03:56;2.03;;;0.60;;
12135;SDS011;6131;56.420;15.548;2024-02-21T10:06:22;0.80;;;0.50;;
12135;SDS011;6131;56.420;15.548;2024-02-21T10:08:55;0.67;;;0.30;;
12135;SDS011;6131;56.420;15.548;2024-02-21T10:11:24;1.07;;;0.40;;
12135;SDS011;6131;56.420;15.548;2024-02-21T10:13:50;0.63;;;0.30;;
12135;SDS011;6131;56.420;15.548;2024-02-21T10:16:16;2.43;;;0.47;;
12135;SDS011;6131;56.420;15.548;2024-02-21T10:18:42;0.70;;;0.40;;
12135;SDS011;6131;56.420;15.548;2024-02-21T10:21:08;0.87;;;0.47;;
12135;SDS011;6131;56.420;15.548;2024-02-21T10:23:48;1.03;;;0.40;;
12135;SDS011;6131;56.420;15.548;2024-02-21T10:26:14;1.00;;;0.20;;
12135;SDS011;6131;56.420;15.548;2024-02-21T10:28:41;1.00;;;0.30;;
12135;SDS011;6131;56.420;15.548;2024-02-21T10:31:11;0.60;;;0.37;;
12135;SDS011;6131;56.420;15.548;2024-02-21T10:33:37;0.40;;;0.10;;
12135;SDS011;6131;56.420;15.548;2024-02-21T10:36:10;1.43;;;0.30;;
12135;SDS011;6131;56.420;15.548;2024-02-21T10:38:36;0.77;;;0.30;;
12135;SDS011;6131;56.420;15.548;2024-02-21T10:41:04;1.70;;;0.50;;
12135;SDS011;6131;56.420;15.548;2024-02-21T10:43:30;0.87;;;0.30;;
12135;SDS011;6131;56.420;15.548;2024-02-21T10:45:58;1.53;;;0.53;;
12135;SDS011;6131;56.420;15.548;2024-02-21T10:48:28;2.43;;;0.50;;
12135;SDS011;6131;56.420;15.548;2024-02-21T10:56:33;2.43;;;0.70;;
12135;SDS011;6131;56.420;15.548;2024-02-21T10:59:01;1.30;;;0.60;;
12135;SDS011;6131;56.420;15.548;2024-02-21T11:01:28;3.00;;;0.63;;
12135;SDS011;6131;56.420;15.548;2024-02-21T11:03:56;1.33;;;0.60;;
12135;SDS011;6131;56.420;15.548;2024-02-21T11:06:23;2.10;;;0.70;;
12135;SDS011;6131;56.420;15.548;2024-02-21T11:11:25;3.77;;;1.07;;
12135;SDS011;6131;56.420;15.548;2024-02-21T11:13:51;4.83;;;0.97;;
12135;SDS011;6131;56.420;15.548;2024-02-21T11:16:21;3.53;;;1.00;;
12135;SDS011;6131;56.420;15.548;2024-02-21T11:18:48;4.80;;;1.10;;
12135;SDS011;6131;56.420;15.548;2024-02-21T11:21:15;2.80;;;0.70;;
12135;SDS011;6131;56.420;15.548;2024-02-21T11:23:41;3.30;;;1.00;;
12135;SDS011;6131;56.420;15.548;2024-02-21T11:26:10;2.93;;;0.93;;
12135;SDS011;6131;56.420;15.548;2024-02-21T11:28:44;3.53;;;1.00;;
12135;SDS011;6131;56.420;15.548;2024-02-21T11:31:13;2.23;;;0.87;;
12135;SDS011;6131;56.420;15.548;2024-02-21T11:33:40;2.57;;;1.00;;
12135;SDS011;6131;56.420;15.548;2024-02-21T11:36:09;4.53;;;0.90;;
12135;SDS011;6131;56.420;15.548;2024-02-21T11:38:35;3.40;;;0.73;;
12135;SDS011;6131;56.420;15.548;2024-02-21T11:41:01;3.97;;;0.83;;
12135;SDS011;6131;56.420;15.548;2024-02-21T11:43:27;3.97;;;0.97;;
12135;SDS011;6131;56.420;15.548;2024-02-21T11:46:00;5.13;;;1.10;;
12135;SDS011;6131;56.420;15.548;2024-02-21T11:48:27;6.20;;;1.23;;
12135;SDS011;6131;56.420;15.548;2024-02-21T11:50:54;3.47;;;1.00;;
12135;SDS011;6131;56.420;15.548;2024-02-21T11:53:20;5.10;;;1.30;;
12135;SDS011;6131;56.420;15.548;2024-02-21T11:55:47;3.47;;;0.80;;
12135;SDS011;6131;56.420;15.548;2024-02-21T11:58:13;3.77;;;1.53;;
12135;SDS011;6131;56.420;15.548;2024-02-21T12:00:39;4.90;;;1.10;;
12135;SDS011;6131;56.420;15.548;2024-02-21T12:03:05;5.13;;;0.97;;
12135;SDS011;6131;56.420;15.548;2024-02-21T12:05:31;3.30;;;1.27;;
12135;SDS011;6131;56.420;15.548;2024-02-21T12:07:57;6.17;;;1.10;;
12135;SDS011;6131;56.420;15.548;2024-02-21T12:10:24;4.77;;;1.20;;
12135;SDS011;6131;56.420;15.548;2024-02-21T12:12:52;4.87;;;1.37;;
12135;SDS011;6131;56.420;15.548;2024-02-21T12:15:23;2.43;;;0.97;;
12135;SDS011;6131;56.420;15.548;2024-02-21T12:17:49;6.43;;;1.40;;
12135;SDS011;6131;56.420;15.548;2024-02-21T12:20:16;4.00;;;1.23;;
12135;SDS011;6131;56.420;15.548;2024-02-21T12:22:42;2.60;;;1.00;;
12135;SDS011;6131;56.420;15.548;2024-02-21T12:25:21;3.23;;;1.00;;
12135;SDS011;6131;56.420;15.548;2024-02-21T12:27:48;4.20;;;1.20;;
12135;SDS011;6131;56.420;15.548;2024-02-21T12:30:14;5.00;;;0.97;;
12135;SDS011;6131;56.420;15.548;2024-02-21T12:32:40;6.43;;;1.10;;
12135;SDS011;6131;56.420;15.548;2024-02-21T12:35:07;2.67;;;0.70;;
12135;SDS011;6131;56.420;15.548;2024-02-21T12:37:33;4.67;;;1.20;;
12135;SDS011;6131;56.420;15.548;2024-02-21T12:39:59;3.57;;;0.93;;
12135;SDS011;6131;56.420;15.548;2024-02-21T12:42:25;4.67;;;1.13;;
12135;SDS011;6131;56.420;15.548;2024-02-21T12:44:51;1.50;;;0.83;;
12135;SDS011;6131;56.420;15.548;2024-02-21T12:47:18;4.90;;;0.90;;
12135;SDS011;6131;56.420;15.548;2024-02-21T12:49:48;3.30;;;0.97;;
12135;SDS011;6131;56.420;15.548;2024-02-21T12:52:14;6.30;;;1.07;;
12135;SDS011;6131;56.420;15.548;2024-02-21T12:54:41;2.53;;;0.67;;
12135;SDS011;6131;56.420;15.548;2024-02-21T12:57:07;4.53;;;0.90;;
12135;SDS011;6131;56.420;15.548;2024-02-21T12:59:33;2.37;;;0.60;;
12135;SDS011;6131;56.420;15.548;2024-02-21T13:01:59;1.43;;;0.70;;
12135;SDS011;6131;56.420;15.548;2024-02-21T13:04:25;2.20;;;0.80;;
12135;SDS011;6131;56.420;15.548;2024-02-21T13:06:51;1.87;;;0.80;;
12135;SDS011;6131;56.420;15.548;2024-02-21T13:09:17;3.60;;;0.83;;
12135;SDS011;6131;56.420;15.548;2024-02-21T13:11:43;3.97;;;0.80;;
12135;SDS011;6131;56.420;15.548;2024-02-21T13:14:11;2.20;;;0.60;;
12135;SDS011;6131;56.420;15.548;2024-02-21T13:16:37;3.63;;;0.73;;
12135;SDS011;6131;56.420;15.548;2024-02-21T13:19:06;2.73;;;0.50;;
12135;SDS011;6131;56.420;15.548;2024-02-21T13:21:35;1.73;;;0.77;;
12135;SDS011;6131;56.420;15.548;2024-02-21T13:24:01;0.93;;;0.33;;
12135;SDS011;6131;56.420;15.548;2024-02-21T13:26:28;3.83;;;0.80;;
12135;SDS011;6131;56.420;15.548;2024-02-21T13:28:54;4.50;;;0.90;;
12135;SDS011;6131;56.420;15.548;2024-02-21T13:31:20;1.80;;;0.60;;
12135;SDS011;6131;56.420;15.548;2024-02-21T13:33:46;5.30;;;0.83;;
12135;SDS011;6131;56.420;15.548;2024-02-21T13:36:12;2.20;;;0.40;;
12135;SDS011;6131;56.420;15.548;2024-02-21T13:38:38;1.77;;;0.40;;
12135;SDS011;6131;56.420;15.548;2024-02-21T13:41:07;2.83;;;0.80;;
12135;SDS011;6131;56.420;15.548;2024-02-21T13:43:33;1.40;;;0.47;;
12135;SDS011;6131;56.420;15.548;2024-02-21T13:46:00;1.60;;;0.30;;
12135;SDS011;6131;56.420;15.548;2024-02-21T13:48:27;1.03;;;0.50;;
12135;SDS011;6131;56.420;15.548;2024-02-21T13:50:55;1.53;;;0.47;;
12135;SDS011;6131;56.420;15.548;2024-02-21T13:53:21;0.50;;;0.30;;
12135;SDS011;6131;56.420;15.548;2024-02-21T13:55:48;0.67;;;0.27;;
12135;SDS011;6131;56.420;15.548;2024-02-21T13:58:14;0.90;;;0.30;;
12135;SDS011;6131;56.420;15.548;2024-02-21T14:00:40;0.90;;;0.50;;
12135;SDS011;6131;56.420;15.548;2024-02-21T14:03:07;0.40;;;0.20;;
12135;SDS011;6131;56.420;15.548;2024-02-21T14:05:33;0.40;;;0.20;;
12135;SDS011;6131;56.420;15.548;2024-02-21T14:07:59;0.40;;;0.30;;
12135;SDS011;6131;56.420;15.548;2024-02-21T14:10:25;1.13;;;0.40;;
12135;SDS011;6131;56.420;15.548;2024-02-21T14:12:51;0.40;;;0.30;;
12135;SDS011;6131;56.420;15.548;2024-02-21T14:15:17;0.70;;;0.30;;
12135;SDS011;6131;56.420;15.548;2024-02-21T14:17:43;0.83;;;0.40;;
12135;SDS011;6131;56.420;15.548;2024-02-21T14:20:09;0.50;;;0.20;;
12135;SDS011;6131;56.420;15.548;2024-02-21T14:22:35;0.97;;;0.40;;
12135;SDS011;6131;56.420;15.548;2024-02-21T14:25:02;1.63;;;0.30;;
12135;SDS011;6131;56.420;15.548;2024-02-21T14:27:30;0.60;;;0.23;;
12135;SDS011;6131;56.420;15.548;2024-02-21T14:29:57;0.40;;;0.20;;
12135;SDS011;6131;56.420;15.548;2024-02-21T14:32:24;0.70;;;0.30;;
12135;SDS011;6131;56.420;15.548;2024-02-21T14:34:50;1.07;;;0.20;;
12135;SDS011;6131;56.420;15.548;2024-02-21T14:37:16;2.60;;;0.27;;
12135;SDS011;6131;56.420;15.548;2024-02-21T14:39:42;0.97;;;0.20;;
12135;SDS011;6131;56.420;15.548;2024-02-21T14:42:08;0.73;;;0.20;;
12135;SDS011;6131;56.420;15.548;2024-02-21T14:44:37;1.10;;;0.20;;
12135;SDS011;6131;56.420;15.548;2024-02-21T14:47:03;0.60;;;0.40;;